sensor_id;sensor_type;location;lat;lon;timestamp;P1;durP1;ratioP1;P2;durP2;ratioP2
63807;SDS011;49961;43.970;22.868;2022-11-15T00:00:00;16.07;;;12.40;;
63807;SDS011;49961;43.970;22.868;2022-11-15T00:01:01;18.93;;;12.40;;
63807;SDS011;49961;43.970;22.868;2022-11-15T00:02:01;17.30;;;12.80;;
63807;SDS011;49961;43.970;22.868;2022-11-15T00:03:04;16.03;;;12.03;;
63807;SDS011;49961;43.970;22.868;2022-11-15T00:04:04;17.27;;;12.37;;
63807;SDS011;49961;43.970;22.868;2022-11-15T00:05:05;15.57;;;12.00;;
63807;SDS011;49961;43.970;22.868;2022-11-15T00:06:06;15.83;;;12.50;;
63807;SDS011;49961;43.970;22.868;2022-11-15T00:07:06;13.90;;;12.00;;
63807;SDS011;49961;43.970;22.868;2022-11-15T00:08:07;16.27;;;11.43;;
63807;SDS011;49961;43.970;22.868;2022-11-15T00:09:07;13.90;;;11.07;;
63807;SDS011;49961;43.970;22.868;2022-11-15T00:10:08;14.00;;;11.00;;
63807;SDS011;49961;43.970;22.868;2022-11-15T00:11:09;15.37;;;11.10;;
63807;SDS011;49961;43.970;22.868;2022-11-15T00:12:11;15.80;;;11.53;;
63807;SDS011;49961;43.970;22.868;2022-11-15T00:13:12;14.47;;;11.13;;
63807;SDS011;49961;43.970;22.868;2022-11-15T00:14:13;16.97;;;12.07;;
63807;SDS011;49961;43.970;22.868;2022-11-15T00:15:13;15.13;;;11.67;;
63807;SDS011;49961;43.970;22.868;2022-11-15T00:16:14;14.27;;;10.83;;
63807;SDS011;49961;43.970;22.868;2022-11-15T00:17:14;13.37;;;10.47;;
63807;SDS011;49961;43.970;22.868;2022-11-15T00:18:15;13.00;;;11.03;;
63807;SDS011;49961;43.970;22.868;2022-11-15T00:19:16;14.37;;;11.13;;
63807;SDS011;49961;43.970;22.868;2022-11-15T00:20:17;14.73;;;11.37;;
63807;SDS011;49961;43.970;22.868;2022-11-15T00:21:18;13.07;;;10.23;;
63807;SDS011;49961;43.970;22.868;2022-11-15T00:22:18;13.67;;;11.00;;
63807;SDS011;49961;43.970;22.868;2022-11-15T00:23:19;14.53;;;10.70;;
63807;SDS011;49961;43.970;22.868;2022-11-15T00:24:19;12.97;;;9.97;;
63807;SDS011;49961;43.970;22.868;2022-11-15T00:25:19;14.03;;;10.43;;
63807;SDS011;49961;43.970;22.868;2022-11-15T00:26:20;14.80;;;10.83;;
63807;SDS011;49961;43.970;22.868;2022-11-15T00:27:20;14.23;;;10.80;;
63807;SDS011;49961;43.970;22.868;2022-11-15T00:28:21;15.87;;;10.63;;
63807;SDS011;49961;43.970;22.868;2022-11-15T00:29:21;11.80;;;9.97;;
63807;SDS011;49961;43.970;22.868;2022-11-15T00:30:22;13.50;;;10.70;;
63807;SDS011;49961;43.970;22.868;2022-11-15T00:31:23;15.03;;;11.13;;
63807;SDS011;49961;43.970;22.868;2022-11-15T00:32:23;14.13;;;11.70;;
63807;SDS011;49961;43.970;22.868;2022-11-15T00:33:24;12.83;;;11.00;;
63807;SDS011;49961;43.970;22.868;2022-11-15T00:34:24;15.77;;;11.47;;
63807;SDS011;49961;43.970;22.868;2022-11-15T00:35:25;13.87;;;11.23;;
63807;SDS011;49961;43.970;22.868;2022-11-15T00:36:25;14.43;;;10.97;;
63807;SDS011;49961;43.970;22.868;2022-11-15T00:37:26;14.63;;;11.83;;
63807;SDS011;49961;43.970;22.868;2022-11-15T00:38:30;16.60;;;12.73;;
63807;SDS011;49961;43.970;22.868;2022-11-15T00:39:31;15.50;;;11.90;;
63807;SDS011;49961;43.970;22.868;2022-11-15T00:40:31;16.30;;;12.20;;
63807;SDS011;49961;43.970;22.868;2022-11-15T00:41:32;17.77;;;12.53;;
63807;SDS011;49961;43.970;22.868;2022-11-15T00:42:32;15.23;;;12.13;;
63807;SDS011;49961;43.970;22.868;2022-11-15T00:43:33;15.33;;;12.43;;
63807;SDS011;49961;43.970;22.868;2022-11-15T00:44:34;16.07;;;11.97;;
63807;SDS011;49961;43.970;22.868;2022-11-15T00:45:35;15.73;;;12.20;;
63807;SDS011;49961;43.970;22.868;2022-11-15T00:46:35;16.63;;;12.57;;
63807;SDS011;49961;43.970;22.868;2022-11-15T00:47:35;15.70;;;12.07;;
63807;SDS011;49961;43.970;22.868;2022-11-15T00:48:36;15.70;;;11.63;;
63807;SDS011;49961;43.970;22.868;2022-11-15T00:49:37;14.83;;;11.80;;
63807;SDS011;49961;43.970;22.868;2022-11-15T00:50:37;18.63;;;12.80;;
63807;SDS011;49961;43.970;22.868;2022-11-15T00:51:38;15.90;;;12.50;;
63807;SDS011;49961;43.970;22.868;2022-11-15T00:52:38;15.40;;;12.13;;
63807;SDS011;49961;43.970;22.868;2022-11-15T00:53:39;15.80;;;12.47;;
63807;SDS011;49961;43.970;22.868;2022-11-15T00:54:39;15.00;;;12.07;;
63807;SDS011;49961;43.970;22.868;2022-11-15T00:55:40;16.17;;;12.83;;
63807;SDS011;49961;43.970;22.868;2022-11-15T00:56:40;18.20;;;12.03;;
63807;SDS011;49961;43.970;22.868;2022-11-15T00:57:41;16.67;;;12.77;;
63807;SDS011;49961;43.970;22.868;2022-11-15T00:58:41;14.20;;;11.93;;
63807;SDS011;49961;43.970;22.868;2022-11-15T00:59:42;16.30;;;12.53;;
63807;SDS011;49961;43.970;22.868;2022-11-15T01:00:42;15.80;;;12.33;;
63807;SDS011;49961;43.970;22.868;2022-11-15T01:01:43;16.30;;;11.63;;
63807;SDS011;49961;43.970;22.868;2022-11-15T01:02:43;15.57;;;12.57;;
63807;SDS011;49961;43.970;22.868;2022-11-15T01:03:43;13.53;;;11.03;;
63807;SDS011;49961;43.970;22.868;2022-11-15T01:04:44;13.87;;;10.87;;
63807;SDS011;49961;43.970;22.868;2022-11-15T01:05:45;14.80;;;11.70;;
63807;SDS011;49961;43.970;22.868;2022-11-15T01:06:45;15.33;;;11.03;;
63807;SDS011;49961;43.970;22.868;2022-11-15T01:07:45;12.17;;;10.47;;
63807;SDS011;49961;43.970;22.868;2022-11-15T01:08:46;14.63;;;10.47;;
63807;SDS011;49961;43.970;22.868;2022-11-15T01:09:46;15.00;;;11.23;;
63807;SDS011;49961;43.970;22.868;2022-11-15T01:10:47;14.67;;;11.60;;
63807;SDS011;49961;43.970;22.868;2022-11-15T01:11:47;15.80;;;11.13;;
63807;SDS011;49961;43.970;22.868;2022-11-15T01:12:48;14.60;;;11.30;;
63807;SDS011;49961;43.970;22.868;2022-11-15T01:13:49;14.27;;;11.50;;
63807;SDS011;49961;43.970;22.868;2022-11-15T01:14:49;13.60;;;10.83;;
63807;SDS011;49961;43.970;22.868;2022-11-15T01:15:49;16.40;;;11.83;;
63807;SDS011;49961;43.970;22.868;2022-11-15T01:16:50;15.53;;;11.30;;
63807;SDS011;49961;43.970;22.868;2022-11-15T01:17:50;15.70;;;11.27;;
63807;SDS011;49961;43.970;22.868;2022-11-15T01:18:51;15.20;;;11.30;;
63807;SDS011;49961;43.970;22.868;2022-11-15T01:19:51;14.60;;;10.90;;
63807;SDS011;49961;43.970;22.868;2022-11-15T01:20:52;13.53;;;11.20;;
63807;SDS011;49961;43.970;22.868;2022-11-15T01:21:52;14.13;;;11.10;;
63807;SDS011;49961;43.970;22.868;2022-11-15T01:22:52;15.00;;;11.27;;
63807;SDS011;49961;43.970;22.868;2022-11-15T01:23:53;14.53;;;10.93;;
63807;SDS011;49961;43.970;22.868;2022-11-15T01:24:55;14.97;;;10.70;;
63807;SDS011;49961;43.970;22.868;2022-11-15T01:25:59;12.40;;;9.97;;
63807;SDS011;49961;43.970;22.868;2022-11-15T01:27:00;14.40;;;10.93;;
63807;SDS011;49961;43.970;22.868;2022-11-15T01:28:01;13.70;;;10.67;;
63807;SDS011;49961;43.970;22.868;2022-11-15T01:29:01;14.87;;;10.93;;
63807;SDS011;49961;43.970;22.868;2022-11-15T01:30:02;15.13;;;11.20;;
63807;SDS011;49961;43.970;22.868;2022-11-15T01:31:04;14.17;;;10.80;;
63807;SDS011;49961;43.970;22.868;2022-11-15T01:32:06;13.63;;;10.57;;
63807;SDS011;49961;43.970;22.868;2022-11-15T01:33:07;13.77;;;10.50;;
63807;SDS011;49961;43.970;22.868;2022-11-15T01:34:07;13.50;;;10.67;;
63807;SDS011;49961;43.970;22.868;2022-11-15T01:35:08;15.20;;;10.97;;
63807;SDS011;49961;43.970;22.868;2022-11-15T01:36:12;14.43;;;11.27;;
63807;SDS011;49961;43.970;22.868;2022-11-15T01:37:21;17.80;;;10.83;;
63807;SDS011;49961;43.970;22.868;2022-11-15T01:38:22;12.93;;;10.30;;
63807;SDS011;49961;43.970;22.868;2022-11-15T01:39:22;13.63;;;10.93;;
63807;SDS011;49961;43.970;22.868;2022-11-15T01:40:23;14.10;;;10.17;;
63807;SDS011;49961;43.970;22.868;2022-11-15T01:41:24;14.43;;;10.33;;
63807;SDS011;49961;43.970;22.868;2022-11-15T01:42:29;13.90;;;10.37;;
63807;SDS011;49961;43.970;22.868;2022-11-15T01:43:34;15.67;;;10.77;;
63807;SDS011;49961;43.970;22.868;2022-11-15T01:44:49;15.60;;;11.47;;
63807;SDS011;49961;43.970;22.868;2022-11-15T01:46:02;15.23;;;11.70;;
63807;SDS011;49961;43.970;22.868;2022-11-15T01:47:08;15.23;;;11.87;;
63807;SDS011;49961;43.970;22.868;2022-11-15T01:48:19;14.97;;;11.73;;
63807;SDS011;49961;43.970;22.868;2022-11-15T01:49:21;13.87;;;11.27;;
63807;SDS011;49961;43.970;22.868;2022-11-15T01:50:25;15.80;;;12.10;;
63807;SDS011;49961;43.970;22.868;2022-11-15T01:51:29;14.87;;;11.70;;
63807;SDS011;49961;43.970;22.868;2022-11-15T01:52:33;14.60;;;11.30;;
63807;SDS011;49961;43.970;22.868;2022-11-15T01:53:35;14.90;;;11.43;;
63807;SDS011;49961;43.970;22.868;2022-11-15T01:54:38;15.80;;;12.33;;
63807;SDS011;49961;43.970;22.868;2022-11-15T01:55:39;15.77;;;11.57;;
63807;SDS011;49961;43.970;22.868;2022-11-15T01:56:43;14.37;;;11.70;;
63807;SDS011;49961;43.970;22.868;2022-11-15T01:57:51;15.40;;;11.33;;
63807;SDS011;49961;43.970;22.868;2022-11-15T01:58:55;16.13;;;11.63;;
63807;SDS011;49961;43.970;22.868;2022-11-15T01:59:58;13.60;;;11.07;;
63807;SDS011;49961;43.970;22.868;2022-11-15T02:01:01;14.90;;;11.73;;
63807;SDS011;49961;43.970;22.868;2022-11-15T02:02:01;15.20;;;11.73;;
63807;SDS011;49961;43.970;22.868;2022-11-15T02:03:02;16.03;;;11.97;;
63807;SDS011;49961;43.970;22.868;2022-11-15T02:04:07;16.33;;;11.70;;
63807;SDS011;49961;43.970;22.868;2022-11-15T02:05:13;14.13;;;11.40;;
63807;SDS011;49961;43.970;22.868;2022-11-15T02:06:13;14.53;;;11.70;;
63807;SDS011;49961;43.970;22.868;2022-11-15T02:07:18;15.90;;;12.20;;
63807;SDS011;49961;43.970;22.868;2022-11-15T02:08:20;13.57;;;10.73;;
63807;SDS011;49961;43.970;22.868;2022-11-15T02:09:20;15.33;;;12.10;;
63807;SDS011;49961;43.970;22.868;2022-11-15T02:10:22;16.20;;;12.27;;
63807;SDS011;49961;43.970;22.868;2022-11-15T02:11:23;15.93;;;12.07;;
63807;SDS011;49961;43.970;22.868;2022-11-15T02:12:24;15.60;;;11.33;;
63807;SDS011;49961;43.970;22.868;2022-11-15T02:13:24;14.00;;;11.30;;
63807;SDS011;49961;43.970;22.868;2022-11-15T02:14:25;14.20;;;11.73;;
63807;SDS011;49961;43.970;22.868;2022-11-15T02:15:31;14.53;;;11.67;;
63807;SDS011;49961;43.970;22.868;2022-11-15T02:18:26;14.87;;;11.73;;
63807;SDS011;49961;43.970;22.868;2022-11-15T02:24:55;15.73;;;11.53;;
63807;SDS011;49961;43.970;22.868;2022-11-15T02:31:48;14.63;;;11.83;;
63807;SDS011;49961;43.970;22.868;2022-11-15T02:32:52;14.20;;;11.70;;
63807;SDS011;49961;43.970;22.868;2022-11-15T02:33:59;15.80;;;11.73;;
63807;SDS011;49961;43.970;22.868;2022-11-15T02:39:58;14.13;;;11.47;;
63807;SDS011;49961;43.970;22.868;2022-11-15T02:41:15;14.57;;;11.40;;
63807;SDS011;49961;43.970;22.868;2022-11-15T02:42:24;15.63;;;12.20;;
63807;SDS011;49961;43.970;22.868;2022-11-15T02:43:54;17.80;;;12.30;;
63807;SDS011;49961;43.970;22.868;2022-11-15T02:45:03;16.80;;;12.43;;
63807;SDS011;49961;43.970;22.868;2022-11-15T02:46:09;16.03;;;11.90;;
63807;SDS011;49961;43.970;22.868;2022-11-15T02:47:22;14.57;;;11.43;;
63807;SDS011;49961;43.970;22.868;2022-11-15T02:48:27;18.97;;;12.43;;
63807;SDS011;49961;43.970;22.868;2022-11-15T02:49:30;17.40;;;12.40;;
63807;SDS011;49961;43.970;22.868;2022-11-15T02:50:33;15.47;;;11.30;;
63807;SDS011;49961;43.970;22.868;2022-11-15T02:51:34;15.23;;;12.00;;
63807;SDS011;49961;43.970;22.868;2022-11-15T02:52:34;15.37;;;11.83;;
63807;SDS011;49961;43.970;22.868;2022-11-15T02:53:35;16.33;;;12.10;;
63807;SDS011;49961;43.970;22.868;2022-11-15T02:54:35;15.53;;;12.13;;
63807;SDS011;49961;43.970;22.868;2022-11-15T02:55:37;15.73;;;11.57;;
63807;SDS011;49961;43.970;22.868;2022-11-15T02:56:40;15.40;;;11.70;;
63807;SDS011;49961;43.970;22.868;2022-11-15T02:57:52;16.07;;;11.70;;
63807;SDS011;49961;43.970;22.868;2022-11-15T02:59:30;16.67;;;11.73;;
63807;SDS011;49961;43.970;22.868;2022-11-15T03:00:35;20.97;;;12.60;;
63807;SDS011;49961;43.970;22.868;2022-11-15T03:03:09;17.10;;;12.27;;
63807;SDS011;49961;43.970;22.868;2022-11-15T03:04:28;16.67;;;12.33;;
63807;SDS011;49961;43.970;22.868;2022-11-15T03:07:07;16.97;;;11.77;;
63807;SDS011;49961;43.970;22.868;2022-11-15T03:08:37;15.13;;;11.63;;
63807;SDS011;49961;43.970;22.868;2022-11-15T03:10:04;16.17;;;11.80;;
63807;SDS011;49961;43.970;22.868;2022-11-15T03:11:16;17.27;;;12.27;;
63807;SDS011;49961;43.970;22.868;2022-11-15T03:13:27;15.00;;;11.90;;
63807;SDS011;49961;43.970;22.868;2022-11-15T03:14:51;15.67;;;11.77;;
63807;SDS011;49961;43.970;22.868;2022-11-15T03:16:09;18.47;;;12.57;;
63807;SDS011;49961;43.970;22.868;2022-11-15T03:18:28;17.80;;;12.70;;
63807;SDS011;49961;43.970;22.868;2022-11-15T03:19:56;15.97;;;11.90;;
63807;SDS011;49961;43.970;22.868;2022-11-15T03:20:59;15.53;;;11.23;;
63807;SDS011;49961;43.970;22.868;2022-11-15T03:22:03;16.83;;;11.87;;
63807;SDS011;49961;43.970;22.868;2022-11-15T03:23:09;18.50;;;13.17;;
63807;SDS011;49961;43.970;22.868;2022-11-15T03:24:11;16.17;;;11.80;;
63807;SDS011;49961;43.970;22.868;2022-11-15T03:25:17;17.57;;;12.40;;
63807;SDS011;49961;43.970;22.868;2022-11-15T03:26:21;15.87;;;12.63;;
63807;SDS011;49961;43.970;22.868;2022-11-15T03:27:25;17.83;;;12.37;;
63807;SDS011;49961;43.970;22.868;2022-11-15T03:28:33;17.03;;;11.80;;
63807;SDS011;49961;43.970;22.868;2022-11-15T03:29:47;16.23;;;12.33;;
63807;SDS011;49961;43.970;22.868;2022-11-15T03:30:52;18.87;;;12.53;;
63807;SDS011;49961;43.970;22.868;2022-11-15T03:31:56;16.83;;;12.57;;
63807;SDS011;49961;43.970;22.868;2022-11-15T03:33:02;16.87;;;12.60;;
63807;SDS011;49961;43.970;22.868;2022-11-15T03:34:04;17.13;;;12.30;;
63807;SDS011;49961;43.970;22.868;2022-11-15T03:35:17;19.30;;;12.10;;
63807;SDS011;49961;43.970;22.868;2022-11-15T03:36:21;17.23;;;12.50;;
63807;SDS011;49961;43.970;22.868;2022-11-15T03:37:25;18.87;;;12.57;;
63807;SDS011;49961;43.970;22.868;2022-11-15T03:38:32;17.53;;;12.87;;
63807;SDS011;49961;43.970;22.868;2022-11-15T03:39:35;19.17;;;12.03;;
63807;SDS011;49961;43.970;22.868;2022-11-15T03:42:06;16.97;;;12.23;;
63807;SDS011;49961;43.970;22.868;2022-11-15T03:46:31;18.73;;;12.77;;
63807;SDS011;49961;43.970;22.868;2022-11-15T03:47:32;18.07;;;12.80;;
63807;SDS011;49961;43.970;22.868;2022-11-15T03:48:47;18.00;;;12.00;;
63807;SDS011;49961;43.970;22.868;2022-11-15T03:49:52;19.07;;;12.93;;
63807;SDS011;49961;43.970;22.868;2022-11-15T03:50:57;16.97;;;12.20;;
63807;SDS011;49961;43.970;22.868;2022-11-15T03:51:58;17.80;;;12.80;;
63807;SDS011;49961;43.970;22.868;2022-11-15T03:53:00;18.50;;;12.63;;
63807;SDS011;49961;43.970;22.868;2022-11-15T03:54:02;15.00;;;11.53;;
63807;SDS011;49961;43.970;22.868;2022-11-15T03:55:05;17.87;;;11.57;;
63807;SDS011;49961;43.970;22.868;2022-11-15T03:56:08;18.43;;;11.97;;
63807;SDS011;49961;43.970;22.868;2022-11-15T03:57:08;17.90;;;12.60;;
63807;SDS011;49961;43.970;22.868;2022-11-15T03:58:08;16.50;;;11.63;;
63807;SDS011;49961;43.970;22.868;2022-11-15T03:59:09;15.50;;;12.27;;
63807;SDS011;49961;43.970;22.868;2022-11-15T04:00:10;17.63;;;11.67;;
63807;SDS011;49961;43.970;22.868;2022-11-15T04:01:11;15.63;;;12.00;;
63807;SDS011;49961;43.970;22.868;2022-11-15T04:02:12;14.77;;;11.87;;
63807;SDS011;49961;43.970;22.868;2022-11-15T04:03:13;15.77;;;12.13;;
63807;SDS011;49961;43.970;22.868;2022-11-15T04:04:14;17.67;;;12.90;;
63807;SDS011;49961;43.970;22.868;2022-11-15T04:05:14;19.67;;;13.53;;
63807;SDS011;49961;43.970;22.868;2022-11-15T04:06:15;17.57;;;13.30;;
63807;SDS011;49961;43.970;22.868;2022-11-15T04:07:15;18.27;;;14.43;;
63807;SDS011;49961;43.970;22.868;2022-11-15T04:08:15;19.63;;;13.87;;
63807;SDS011;49961;43.970;22.868;2022-11-15T04:09:16;17.50;;;13.67;;
63807;SDS011;49961;43.970;22.868;2022-11-15T04:10:16;19.17;;;13.40;;
63807;SDS011;49961;43.970;22.868;2022-11-15T04:11:17;23.07;;;17.03;;
63807;SDS011;49961;43.970;22.868;2022-11-15T04:12:17;25.23;;;17.47;;
63807;SDS011;49961;43.970;22.868;2022-11-15T04:13:30;21.13;;;14.40;;
63807;SDS011;49961;43.970;22.868;2022-11-15T04:14:30;17.97;;;13.53;;
63807;SDS011;49961;43.970;22.868;2022-11-15T04:15:31;19.10;;;13.77;;
63807;SDS011;49961;43.970;22.868;2022-11-15T04:16:32;19.93;;;14.10;;
63807;SDS011;49961;43.970;22.868;2022-11-15T04:17:36;21.87;;;16.20;;
63807;SDS011;49961;43.970;22.868;2022-11-15T04:18:37;20.80;;;15.40;;
63807;SDS011;49961;43.970;22.868;2022-11-15T04:19:37;21.13;;;16.03;;
63807;SDS011;49961;43.970;22.868;2022-11-15T04:20:56;22.83;;;16.33;;
63807;SDS011;49961;43.970;22.868;2022-11-15T04:22:15;23.07;;;17.87;;
63807;SDS011;49961;43.970;22.868;2022-11-15T04:23:34;22.50;;;16.20;;
63807;SDS011;49961;43.970;22.868;2022-11-15T04:25:07;22.67;;;16.43;;
63807;SDS011;49961;43.970;22.868;2022-11-15T04:26:09;21.50;;;16.57;;
63807;SDS011;49961;43.970;22.868;2022-11-15T04:27:11;22.47;;;17.43;;
63807;SDS011;49961;43.970;22.868;2022-11-15T04:28:13;22.00;;;17.20;;
63807;SDS011;49961;43.970;22.868;2022-11-15T04:29:13;23.00;;;18.50;;
63807;SDS011;49961;43.970;22.868;2022-11-15T04:30:32;25.73;;;20.73;;
63807;SDS011;49961;43.970;22.868;2022-11-15T04:31:33;28.47;;;21.80;;
63807;SDS011;49961;43.970;22.868;2022-11-15T04:32:33;27.97;;;22.00;;
63807;SDS011;49961;43.970;22.868;2022-11-15T04:33:34;25.97;;;22.10;;
63807;SDS011;49961;43.970;22.868;2022-11-15T04:34:34;27.37;;;21.40;;
63807;SDS011;49961;43.970;22.868;2022-11-15T04:35:35;25.43;;;20.60;;
63807;SDS011;49961;43.970;22.868;2022-11-15T04:36:35;30.80;;;24.90;;
63807;SDS011;49961;43.970;22.868;2022-11-15T04:37:54;32.23;;;24.90;;
63807;SDS011;49961;43.970;22.868;2022-11-15T04:38:55;28.23;;;23.03;;
63807;SDS011;49961;43.970;22.868;2022-11-15T04:39:56;30.57;;;22.90;;
63807;SDS011;49961;43.970;22.868;2022-11-15T04:40:56;28.20;;;22.00;;
63807;SDS011;49961;43.970;22.868;2022-11-15T04:41:57;26.30;;;21.30;;
63807;SDS011;49961;43.970;22.868;2022-11-15T04:42:57;27.47;;;20.57;;
63807;SDS011;49961;43.970;22.868;2022-11-15T04:43:58;29.57;;;21.57;;
63807;SDS011;49961;43.970;22.868;2022-11-15T04:44:58;26.87;;;21.13;;
63807;SDS011;49961;43.970;22.868;2022-11-15T04:45:58;29.00;;;20.93;;
63807;SDS011;49961;43.970;22.868;2022-11-15T04:46:59;28.57;;;20.27;;
63807;SDS011;49961;43.970;22.868;2022-11-15T04:47:59;26.10;;;19.77;;
63807;SDS011;49961;43.970;22.868;2022-11-15T04:49:00;24.70;;;19.23;;
63807;SDS011;49961;43.970;22.868;2022-11-15T04:50:00;28.90;;;20.60;;
63807;SDS011;49961;43.970;22.868;2022-11-15T04:51:01;26.70;;;20.57;;
63807;SDS011;49961;43.970;22.868;2022-11-15T04:52:01;26.97;;;20.33;;
63807;SDS011;49961;43.970;22.868;2022-11-15T04:53:02;27.03;;;19.97;;
63807;SDS011;49961;43.970;22.868;2022-11-15T04:54:02;26.33;;;20.03;;
63807;SDS011;49961;43.970;22.868;2022-11-15T04:55:03;24.10;;;18.80;;
63807;SDS011;49961;43.970;22.868;2022-11-15T04:56:03;25.90;;;19.80;;
63807;SDS011;49961;43.970;22.868;2022-11-15T04:57:04;24.23;;;19.03;;
63807;SDS011;49961;43.970;22.868;2022-11-15T04:58:04;26.40;;;19.07;;
63807;SDS011;49961;43.970;22.868;2022-11-15T04:59:05;24.10;;;18.60;;
63807;SDS011;49961;43.970;22.868;2022-11-15T05:00:07;25.47;;;17.90;;
63807;SDS011;49961;43.970;22.868;2022-11-15T05:01:13;23.03;;;16.83;;
63807;SDS011;49961;43.970;22.868;2022-11-15T05:02:14;24.43;;;17.13;;
63807;SDS011;49961;43.970;22.868;2022-11-15T05:03:15;25.17;;;17.40;;
63807;SDS011;49961;43.970;22.868;2022-11-15T05:04:34;23.13;;;16.93;;
63807;SDS011;49961;43.970;22.868;2022-11-15T05:05:34;23.30;;;17.37;;
63807;SDS011;49961;43.970;22.868;2022-11-15T05:06:34;25.17;;;17.37;;
63807;SDS011;49961;43.970;22.868;2022-11-15T05:07:35;23.13;;;16.53;;
63807;SDS011;49961;43.970;22.868;2022-11-15T05:08:35;24.10;;;17.23;;
63807;SDS011;49961;43.970;22.868;2022-11-15T05:09:36;23.10;;;17.27;;
63807;SDS011;49961;43.970;22.868;2022-11-15T05:10:36;24.87;;;17.47;;
63807;SDS011;49961;43.970;22.868;2022-11-15T05:11:36;23.83;;;17.63;;
63807;SDS011;49961;43.970;22.868;2022-11-15T05:12:37;25.83;;;17.87;;
63807;SDS011;49961;43.970;22.868;2022-11-15T05:13:37;24.20;;;16.87;;
63807;SDS011;49961;43.970;22.868;2022-11-15T05:14:38;32.17;;;18.13;;
63807;SDS011;49961;43.970;22.868;2022-11-15T05:15:38;23.53;;;17.17;;
63807;SDS011;49961;43.970;22.868;2022-11-15T05:16:39;24.37;;;16.53;;
63807;SDS011;49961;43.970;22.868;2022-11-15T05:17:40;21.77;;;17.00;;
63807;SDS011;49961;43.970;22.868;2022-11-15T05:18:41;24.70;;;16.80;;
63807;SDS011;49961;43.970;22.868;2022-11-15T05:19:41;22.57;;;15.87;;
63807;SDS011;49961;43.970;22.868;2022-11-15T05:20:42;22.33;;;16.90;;
63807;SDS011;49961;43.970;22.868;2022-11-15T05:21:42;25.03;;;16.97;;
63807;SDS011;49961;43.970;22.868;2022-11-15T05:22:43;20.50;;;16.20;;
63807;SDS011;49961;43.970;22.868;2022-11-15T05:23:43;22.27;;;16.70;;
63807;SDS011;49961;43.970;22.868;2022-11-15T05:24:44;21.87;;;16.53;;
63807;SDS011;49961;43.970;22.868;2022-11-15T05:25:44;31.33;;;24.27;;
63807;SDS011;49961;43.970;22.868;2022-11-15T05:26:45;22.87;;;15.97;;
63807;SDS011;49961;43.970;22.868;2022-11-15T05:27:45;21.07;;;14.83;;
63807;SDS011;49961;43.970;22.868;2022-11-15T05:28:45;25.67;;;17.20;;
63807;SDS011;49961;43.970;22.868;2022-11-15T05:29:46;20.97;;;15.90;;
63807;SDS011;49961;43.970;22.868;2022-11-15T05:30:46;22.03;;;16.63;;
63807;SDS011;49961;43.970;22.868;2022-11-15T05:31:47;24.50;;;17.03;;
63807;SDS011;49961;43.970;22.868;2022-11-15T05:32:47;22.97;;;16.60;;
63807;SDS011;49961;43.970;22.868;2022-11-15T05:33:49;23.13;;;16.57;;
63807;SDS011;49961;43.970;22.868;2022-11-15T05:34:51;21.87;;;16.77;;
63807;SDS011;49961;43.970;22.868;2022-11-15T05:35:54;22.50;;;16.57;;
63807;SDS011;49961;43.970;22.868;2022-11-15T05:37:00;24.90;;;16.77;;
63807;SDS011;49961;43.970;22.868;2022-11-15T05:38:01;22.80;;;17.60;;
63807;SDS011;49961;43.970;22.868;2022-11-15T05:39:02;23.30;;;16.67;;
63807;SDS011;49961;43.970;22.868;2022-11-15T05:40:04;25.30;;;16.40;;
63807;SDS011;49961;43.970;22.868;2022-11-15T05:41:05;23.53;;;17.33;;
63807;SDS011;49961;43.970;22.868;2022-11-15T05:42:08;24.77;;;17.33;;
63807;SDS011;49961;43.970;22.868;2022-11-15T05:43:10;22.30;;;17.13;;
63807;SDS011;49961;43.970;22.868;2022-11-15T05:44:11;25.30;;;18.93;;
63807;SDS011;49961;43.970;22.868;2022-11-15T05:45:15;24.37;;;19.43;;
63807;SDS011;49961;43.970;22.868;2022-11-15T05:46:16;28.70;;;21.40;;
63807;SDS011;49961;43.970;22.868;2022-11-15T05:47:19;29.73;;;22.77;;
63807;SDS011;49961;43.970;22.868;2022-11-15T05:48:25;27.03;;;19.03;;
63807;SDS011;49961;43.970;22.868;2022-11-15T05:49:27;27.47;;;19.83;;
63807;SDS011;49961;43.970;22.868;2022-11-15T05:50:31;25.17;;;19.07;;
63807;SDS011;49961;43.970;22.868;2022-11-15T05:51:32;24.73;;;16.37;;
63807;SDS011;49961;43.970;22.868;2022-11-15T05:52:34;24.43;;;17.33;;
63807;SDS011;49961;43.970;22.868;2022-11-15T05:53:37;23.23;;;17.00;;
63807;SDS011;49961;43.970;22.868;2022-11-15T05:54:37;24.37;;;18.33;;
63807;SDS011;49961;43.970;22.868;2022-11-15T05:55:38;29.17;;;20.53;;
63807;SDS011;49961;43.970;22.868;2022-11-15T05:56:40;29.63;;;22.70;;
63807;SDS011;49961;43.970;22.868;2022-11-15T05:57:41;28.63;;;22.73;;
63807;SDS011;49961;43.970;22.868;2022-11-15T05:58:42;24.17;;;19.73;;
63807;SDS011;49961;43.970;22.868;2022-11-15T05:59:43;22.97;;;18.83;;
63807;SDS011;49961;43.970;22.868;2022-11-15T06:00:43;25.27;;;18.53;;
63807;SDS011;49961;43.970;22.868;2022-11-15T06:01:44;23.07;;;17.50;;
63807;SDS011;49961;43.970;22.868;2022-11-15T06:02:44;25.10;;;18.30;;
63807;SDS011;49961;43.970;22.868;2022-11-15T06:03:45;24.03;;;18.07;;
63807;SDS011;49961;43.970;22.868;2022-11-15T06:04:45;25.00;;;17.03;;
63807;SDS011;49961;43.970;22.868;2022-11-15T06:05:46;23.47;;;16.57;;
63807;SDS011;49961;43.970;22.868;2022-11-15T06:06:46;21.20;;;14.87;;
63807;SDS011;49961;43.970;22.868;2022-11-15T06:07:47;22.33;;;15.90;;
63807;SDS011;49961;43.970;22.868;2022-11-15T06:08:47;21.77;;;15.87;;
63807;SDS011;49961;43.970;22.868;2022-11-15T06:09:47;23.77;;;16.17;;
63807;SDS011;49961;43.970;22.868;2022-11-15T06:10:48;22.50;;;16.13;;
63807;SDS011;49961;43.970;22.868;2022-11-15T06:11:48;22.20;;;16.60;;
63807;SDS011;49961;43.970;22.868;2022-11-15T06:12:56;20.87;;;15.60;;
63807;SDS011;49961;43.970;22.868;2022-11-15T06:14:03;21.47;;;15.77;;
63807;SDS011;49961;43.970;22.868;2022-11-15T06:15:04;21.70;;;15.67;;
63807;SDS011;49961;43.970;22.868;2022-11-15T06:16:04;23.67;;;16.80;;
63807;SDS011;49961;43.970;22.868;2022-11-15T06:17:05;24.73;;;17.73;;
63807;SDS011;49961;43.970;22.868;2022-11-15T06:18:06;27.13;;;19.60;;
63807;SDS011;49961;43.970;22.868;2022-11-15T06:19:06;28.20;;;20.70;;
63807;SDS011;49961;43.970;22.868;2022-11-15T06:20:07;29.17;;;22.43;;
63807;SDS011;49961;43.970;22.868;2022-11-15T06:21:08;30.17;;;21.13;;
63807;SDS011;49961;43.970;22.868;2022-11-15T06:22:08;30.47;;;21.87;;
63807;SDS011;49961;43.970;22.868;2022-11-15T06:23:09;28.10;;;21.30;;
63807;SDS011;49961;43.970;22.868;2022-11-15T06:24:10;32.17;;;22.13;;
63807;SDS011;49961;43.970;22.868;2022-11-15T06:25:10;30.40;;;22.50;;
63807;SDS011;49961;43.970;22.868;2022-11-15T06:26:10;29.17;;;21.00;;
63807;SDS011;49961;43.970;22.868;2022-11-15T06:27:11;29.73;;;21.20;;
63807;SDS011;49961;43.970;22.868;2022-11-15T06:28:11;30.23;;;21.53;;
63807;SDS011;49961;43.970;22.868;2022-11-15T06:29:12;30.47;;;22.27;;
63807;SDS011;49961;43.970;22.868;2022-11-15T06:30:12;30.87;;;22.83;;